sensor_id;sensor_type;location;lat;lon;timestamp;pressure;altitude;pressure_sealevel;temperature;humidity
35331;BME280;21441;52.190;20.910;2023-07-22T00:00:36;99539.16;;;18.22;100.00
35331;BME280;21441;52.190;20.910;2023-07-22T00:03:24;99533.28;;;18.13;100.00
35331;BME280;21441;52.190;20.910;2023-07-22T00:06:02;99533.56;;;18.12;100.00
35331;BME280;21441;52.190;20.910;2023-07-22T00:08:29;99536.50;;;17.87;100.00
35331;BME280;21441;52.190;20.910;2023-07-22T00:10:56;99530.41;;;18.03;100.00
35331;BME280;21441;52.190;20.910;2023-07-22T00:13:23;99527.81;;;18.08;100.00
35331;BME280;21441;52.190;20.910;2023-07-22T00:15:52;99520.78;;;17.96;100.00
35331;BME280;21441;52.190;20.910;2023-07-22T00:18:19;99538.75;;;17.90;100.00
35331;BME280;21441;52.190;20.910;2023-07-22T00:20:47;99538.28;;;17.93;100.00
35331;BME280;21441;52.190;20.910;2023-07-22T00:23:15;99533.09;;;18.03;100.00
35331;BME280;21441;52.190;20.910;2023-07-22T00:25:42;99524.44;;;17.89;100.00
35331;BME280;21441;52.190;20.910;2023-07-22T00:28:09;99539.28;;;17.80;100.00
35331;BME280;21441;52.190;20.910;2023-07-22T00:30:36;99521.28;;;17.92;100.00
35331;BME280;21441;52.190;20.910;2023-07-22T00:33:03;99542.84;;;17.92;100.00
35331;BME280;21441;52.190;20.910;2023-07-22T00:35:31;99527.34;;;17.76;100.00
35331;BME280;21441;52.190;20.910;2023-07-22T00:38:00;99541.75;;;17.58;100.00
35331;BME280;21441;52.190;20.910;2023-07-22T00:40:27;99532.03;;;17.57;100.00
35331;BME280;21441;52.190;20.910;2023-07-22T00:42:55;99541.28;;;17.49;100.00
35331;BME280;21441;52.190;20.910;2023-07-22T00:45:22;99524.53;;;17.71;100.00
35331;BME280;21441;52.190;20.910;2023-07-22T00:47:49;99532.16;;;17.50;100.00
35331;BME280;21441;52.190;20.910;2023-07-22T00:50:17;99531.47;;;17.55;100.00
35331;BME280;21441;52.190;20.910;2023-07-22T00:52:44;99540.00;;;17.52;100.00
35331;BME280;21441;52.190;20.910;2023-07-22T00:55:13;99516.19;;;17.61;100.00
35331;BME280;21441;52.190;20.910;2023-07-22T00:57:40;99513.88;;;17.64;100.00
35331;BME280;21441;52.190;20.910;2023-07-22T01:00:08;99515.06;;;17.57;100.00
35331;BME280;21441;52.190;20.910;2023-07-22T01:02:37;99521.13;;;17.64;100.00
35331;BME280;21441;52.190;20.910;2023-07-22T01:05:05;99542.59;;;17.59;100.00
35331;BME280;21441;52.190;20.910;2023-07-22T01:07:32;99521.25;;;17.81;100.00
35331;BME280;21441;52.190;20.910;2023-07-22T01:10:00;99519.63;;;17.68;100.00
35331;BME280;21441;52.190;20.910;2023-07-22T01:12:28;99530.41;;;17.68;100.00
35331;BME280;21441;52.190;20.910;2023-07-22T01:14:55;99531.91;;;17.52;100.00
35331;BME280;21441;52.190;20.910;2023-07-22T01:17:22;99525.81;;;17.45;100.00
35331;BME280;21441;52.190;20.910;2023-07-22T01:19:50;99516.09;;;17.44;100.00
35331;BME280;21441;52.190;20.910;2023-07-22T01:22:17;99501.31;;;17.46;100.00
35331;BME280;21441;52.190;20.910;2023-07-22T01:24:46;99499.44;;;17.35;100.00
35331;BME280;21441;52.190;20.910;2023-07-22T01:27:13;99504.84;;;17.47;100.00
35331;BME280;21441;52.190;20.910;2023-07-22T01:29:40;99518.66;;;17.27;100.00
35331;BME280;21441;52.190;20.910;2023-07-22T01:32:07;99502.97;;;17.36;100.00
35331;BME280;21441;52.190;20.910;2023-07-22T01:34:34;99466.84;;;17.37;100.00
35331;BME280;21441;52.190;20.910;2023-07-22T01:37:01;99474.72;;;17.50;100.00
35331;BME280;21441;52.190;20.910;2023-07-22T01:39:30;99469.09;;;17.40;100.00
35331;BME280;21441;52.190;20.910;2023-07-22T01:41:58;99505.16;;;17.27;100.00
35331;BME280;21441;52.190;20.910;2023-07-22T01:44:25;99487.03;;;17.46;100.00
35331;BME280;21441;52.190;20.910;2023-07-22T01:46:52;99481.28;;;17.42;100.00
35331;BME280;21441;52.190;20.910;2023-07-22T01:49:19;99490.78;;;17.33;100.00
35331;BME280;21441;52.190;20.910;2023-07-22T01:51:46;99508.56;;;17.10;100.00
35331;BME280;21441;52.190;20.910;2023-07-22T01:54:13;99501.28;;;17.11;100.00
35331;BME280;21441;52.190;20.910;2023-07-22T01:56:40;99497.88;;;17.04;100.00
35331;BME280;21441;52.190;20.910;2023-07-22T01:59:08;99515.66;;;16.93;100.00
35331;BME280;21441;52.190;20.910;2023-07-22T02:01:35;99504.19;;;16.98;100.00
35331;BME280;21441;52.190;20.910;2023-07-22T02:04:02;99489.06;;;16.97;100.00
35331;BME280;21441;52.190;20.910;2023-07-22T02:06:29;99503.94;;;16.87;100.00
35331;BME280;21441;52.190;20.910;2023-07-22T02:08:56;99505.81;;;16.87;100.00
35331;BME280;21441;52.190;20.910;2023-07-22T02:11:23;99532.84;;;16.80;100.00
35331;BME280;21441;52.190;20.910;2023-07-22T02:13:50;99541.41;;;16.70;100.00
35331;BME280;21441;52.190;20.910;2023-07-22T02:16:18;99530.56;;;16.77;100.00
35331;BME280;21441;52.190;20.910;2023-07-22T02:18:45;99535.00;;;16.71;100.00
35331;BME280;21441;52.190;20.910;2023-07-22T02:21:13;99526.19;;;16.64;100.00
35331;BME280;21441;52.190;20.910;2023-07-22T02:23:40;99517.88;;;16.66;100.00
35331;BME280;21441;52.190;20.910;2023-07-22T02:26:06;99503.91;;;16.57;100.00
35331;BME280;21441;52.190;20.910;2023-07-22T02:28:34;99530.56;;;16.47;100.00
35331;BME280;21441;52.190;20.910;2023-07-22T02:31:02;99501.69;;;16.54;100.00
35331;BME280;21441;52.190;20.910;2023-07-22T02:33:34;99471.19;;;16.72;100.00
35331;BME280;21441;52.190;20.910;2023-07-22T02:36:01;99471.56;;;16.76;100.00
35331;BME280;21441;52.190;20.910;2023-07-22T02:38:28;99466.31;;;16.81;100.00
35331;BME280;21441;52.190;20.910;2023-07-22T02:40:54;99464.81;;;16.85;100.00
35331;BME280;21441;52.190;20.910;2023-07-22T02:43:22;99481.84;;;16.79;100.00
35331;BME280;21441;52.190;20.910;2023-07-22T02:45:49;99495.78;;;16.76;100.00
35331;BME280;21441;52.190;20.910;2023-07-22T02:48:16;99502.81;;;16.77;100.00
35331;BME280;21441;52.190;20.910;2023-07-22T02:50:44;99514.06;;;16.74;100.00
35331;BME280;21441;52.190;20.910;2023-07-22T02:53:11;99469.97;;;16.86;100.00
35331;BME280;21441;52.190;20.910;2023-07-22T02:55:38;99477.09;;;16.81;100.00
35331;BME280;21441;52.190;20.910;2023-07-22T02:58:05;99507.25;;;16.71;100.00
35331;BME280;21441;52.190;20.910;2023-07-22T03:00:32;99503.31;;;16.55;100.00
35331;BME280;21441;52.190;20.910;2023-07-22T03:02:59;99472.09;;;16.66;100.00
35331;BME280;21441;52.190;20.910;2023-07-22T03:05:27;99490.59;;;16.62;100.00
35331;BME280;21441;52.190;20.910;2023-07-22T03:07:56;99501.78;;;16.47;100.00
35331;BME280;21441;52.190;20.910;2023-07-22T03:10:24;99473.38;;;16.63;100.00
35331;BME280;21441;52.190;20.910;2023-07-22T03:12:52;99445.53;;;16.69;100.00
35331;BME280;21441;52.190;20.910;2023-07-22T03:15:21;99458.63;;;16.66;100.00
35331;BME280;21441;52.190;20.910;2023-07-22T03:17:48;99468.69;;;16.59;100.00
35331;BME280;21441;52.190;20.910;2023-07-22T03:20:15;99470.81;;;16.68;100.00
35331;BME280;21441;52.190;20.910;2023-07-22T03:22:45;99438.75;;;16.79;100.00
35331;BME280;21441;52.190;20.910;2023-07-22T03:25:15;99449.81;;;16.89;100.00
35331;BME280;21441;52.190;20.910;2023-07-22T03:27:43;99451.81;;;16.94;100.00
35331;BME280;21441;52.190;20.910;2023-07-22T03:30:13;99451.00;;;16.93;100.00
35331;BME280;21441;52.190;20.910;2023-07-22T03:32:42;99453.13;;;16.91;100.00
35331;BME280;21441;52.190;20.910;2023-07-22T03:35:09;99469.72;;;16.88;100.00
35331;BME280;21441;52.190;20.910;2023-07-22T03:37:36;99464.13;;;16.89;100.00
35331;BME280;21441;52.190;20.910;2023-07-22T03:40:04;99491.81;;;16.78;100.00
35331;BME280;21441;52.190;20.910;2023-07-22T03:42:38;99459.09;;;16.93;100.00
35331;BME280;21441;52.190;20.910;2023-07-22T03:45:06;99455.94;;;17.08;100.00
35331;BME280;21441;52.190;20.910;2023-07-22T03:47:33;99468.44;;;16.90;100.00
35331;BME280;21441;52.190;20.910;2023-07-22T03:50:00;99473.63;;;17.04;100.00
35331;BME280;21441;52.190;20.910;2023-07-22T03:52:27;99480.44;;;17.06;100.00
35331;BME280;21441;52.190;20.910;2023-07-22T03:54:54;99463.56;;;17.11;100.00
35331;BME280;21441;52.190;20.910;2023-07-22T03:57:25;99461.56;;;17.06;100.00
35331;BME280;21441;52.190;20.910;2023-07-22T03:59:53;99487.94;;;17.04;100.00
35331;BME280;21441;52.190;20.910;2023-07-22T04:02:20;99488.16;;;17.15;100.00
35331;BME280;21441;52.190;20.910;2023-07-22T04:04:47;99469.88;;;17.17;100.00
35331;BME280;21441;52.190;20.910;2023-07-22T04:07:14;99466.97;;;17.18;100.00
35331;BME280;21441;52.190;20.910;2023-07-22T04:09:41;99459.13;;;17.28;100.00
35331;BME280;21441;52.190;20.910;2023-07-22T04:12:08;99467.81;;;17.30;100.00
35331;BME280;21441;52.190;20.910;2023-07-22T04:14:35;99476.22;;;17.34;100.00
35331;BME280;21441;52.190;20.910;2023-07-22T04:17:04;99469.31;;;17.38;100.00
35331;BME280;21441;52.190;20.910;2023-07-22T04:19:31;99470.25;;;17.44;100.00
35331;BME280;21441;52.190;20.910;2023-07-22T04:21:58;99477.63;;;17.37;100.00
35331;BME280;21441;52.190;20.910;2023-07-22T04:24:29;99485.03;;;17.41;100.00
35331;BME280;21441;52.190;20.910;2023-07-22T04:26:56;99476.94;;;17.41;100.00
35331;BME280;21441;52.190;20.910;2023-07-22T04:29:23;99522.84;;;17.23;100.00
35331;BME280;21441;52.190;20.910;2023-07-22T04:31:50;99510.56;;;17.27;100.00
35331;BME280;21441;52.190;20.910;2023-07-22T04:34:18;99518.53;;;17.22;100.00
35331;BME280;21441;52.190;20.910;2023-07-22T04:36:45;99503.41;;;17.21;100.00
35331;BME280;21441;52.190;20.910;2023-07-22T04:39:12;99493.81;;;17.13;100.00
35331;BME280;21441;52.190;20.910;2023-07-22T04:41:39;99495.09;;;17.10;100.00
35331;BME280;21441;52.190;20.910;2023-07-22T04:44:06;99503.28;;;17.04;100.00
35331;BME280;21441;52.190;20.910;2023-07-22T04:46:36;99507.38;;;17.06;100.00
35331;BME280;21441;52.190;20.910;2023-07-22T04:49:03;99483.59;;;17.15;100.00
35331;BME280;21441;52.190;20.910;2023-07-22T04:51:32;99480.31;;;17.13;100.00
35331;BME280;21441;52.190;20.910;2023-07-22T04:53:58;99492.72;;;17.14;100.00
35331;BME280;21441;52.190;20.910;2023-07-22T04:56:26;99483.38;;;17.28;100.00
35331;BME280;21441;52.190;20.910;2023-07-22T04:58:52;99505.16;;;17.15;100.00
35331;BME280;21441;52.190;20.910;2023-07-22T05:01:20;99533.84;;;17.09;100.00
35331;BME280;21441;52.190;20.910;2023-07-22T05:03:48;99531.16;;;17.09;100.00
35331;BME280;21441;52.190;20.910;2023-07-22T05:06:18;99522.03;;;17.10;100.00
35331;BME280;21441;52.190;20.910;2023-07-22T05:08:50;99522.84;;;17.11;100.00
35331;BME280;21441;52.190;20.910;2023-07-22T05:11:20;99555.59;;;16.96;100.00
35331;BME280;21441;52.190;20.910;2023-07-22T05:13:49;99600.34;;;16.79;100.00
35331;BME280;21441;52.190;20.910;2023-07-22T05:16:17;99590.59;;;16.84;100.00
35331;BME280;21441;52.190;20.910;2023-07-22T05:18:44;99575.03;;;16.86;100.00
35331;BME280;21441;52.190;20.910;2023-07-22T05:21:11;99598.72;;;16.78;100.00
35331;BME280;21441;52.190;20.910;2023-07-22T05:23:37;99590.28;;;16.74;100.00
35331;BME280;21441;52.190;20.910;2023-07-22T05:26:06;99591.63;;;16.65;100.00
35331;BME280;21441;52.190;20.910;2023-07-22T05:28:32;99579.38;;;16.69;100.00
35331;BME280;21441;52.190;20.910;2023-07-22T05:31:00;99548.69;;;16.88;100.00
35331;BME280;21441;52.190;20.910;2023-07-22T05:33:26;99525.66;;;17.04;100.00
35331;BME280;21441;52.190;20.910;2023-07-22T05:35:54;99527.44;;;17.22;100.00
35331;BME280;21441;52.190;20.910;2023-07-22T05:38:20;99523.13;;;17.33;100.00
35331;BME280;21441;52.190;20.910;2023-07-22T05:40:47;99518.78;;;17.44;100.00
35331;BME280;21441;52.190;20.910;2023-07-22T05:43:15;99521.97;;;17.52;100.00
35331;BME280;21441;52.190;20.910;2023-07-22T05:45:42;99525.09;;;17.49;100.00
35331;BME280;21441;52.190;20.910;2023-07-22T05:48:09;99528.16;;;17.65;100.00
35331;BME280;21441;52.190;20.910;2023-07-22T05:50:36;99529.94;;;17.83;100.00
35331;BME280;21441;52.190;20.910;2023-07-22T05:53:03;99537.81;;;17.84;100.00
35331;BME280;21441;52.190;20.910;2023-07-22T05:55:30;99538.97;;;17.88;100.00
35331;BME280;21441;52.190;20.910;2023-07-22T05:57:57;99538.94;;;18.00;100.00
35331;BME280;21441;52.190;20.910;2023-07-22T06:00:26;99551.19;;;17.91;100.00
35331;BME280;21441;52.190;20.910;2023-07-22T06:02:53;99591.97;;;17.59;100.00
35331;BME280;21441;52.190;20.910;2023-07-22T06:05:20;99572.72;;;17.56;100.00
35331;BME280;21441;52.190;20.910;2023-07-22T06:07:47;99536.50;;;17.99;100.00
35331;BME280;21441;52.190;20.910;2023-07-22T06:10:14;99566.41;;;17.73;100.00
35331;BME280;21441;52.190;20.910;2023-07-22T06:12:41;99598.16;;;17.60;100.00
35331;BME280;21441;52.190;20.910;2023-07-22T06:15:09;99592.13;;;17.34;100.00
35331;BME280;21441;52.190;20.910;2023-07-22T06:17:37;99608.00;;;17.54;100.00
35331;BME280;21441;52.190;20.910;2023-07-22T06:20:05;99576.94;;;17.51;100.00
35331;BME280;21441;52.190;20.910;2023-07-22T06:22:32;99531.22;;;17.68;100.00
35331;BME280;21441;52.190;20.910;2023-07-22T06:24:59;99542.47;;;17.77;100.00
35331;BME280;21441;52.190;20.910;2023-07-22T06:27:27;99547.31;;;17.87;100.00
35331;BME280;21441;52.190;20.910;2023-07-22T06:29:53;99538.75;;;17.90;100.00
35331;BME280;21441;52.190;20.910;2023-07-22T06:32:21;99554.69;;;17.91;100.00
35331;BME280;21441;52.190;20.910;2023-07-22T06:34:49;99553.97;;;18.08;100.00
35331;BME280;21441;52.190;20.910;2023-07-22T06:37:16;99562.00;;;18.43;100.00
35331;BME280;21441;52.190;20.910;2023-07-22T06:39:42;99551.78;;;18.45;100.00
35331;BME280;21441;52.190;20.910;2023-07-22T06:42:09;99556.72;;;18.77;100.00
35331;BME280;21441;52.190;20.910;2023-07-22T06:44:36;99553.81;;;18.79;100.00
35331;BME280;21441;52.190;20.910;2023-07-22T06:47:03;99561.53;;;18.87;100.00
35331;BME280;21441;52.190;20.910;2023-07-22T06:49:30;99570.44;;;18.87;100.00
35331;BME280;21441;52.190;20.910;2023-07-22T06:51:58;99573.38;;;18.45;100.00
35331;BME280;21441;52.190;20.910;2023-07-22T06:54:27;99581.50;;;18.45;100.00
35331;BME280;21441;52.190;20.910;2023-07-22T06:56:54;99578.59;;;18.64;100.00
35331;BME280;21441;52.190;20.910;2023-07-22T06:59:21;99566.97;;;19.04;100.00
35331;BME280;21441;52.190;20.910;2023-07-22T07:01:48;99570.94;;;18.84;100.00
35331;BME280;21441;52.190;20.910;2023-07-22T07:04:15;99567.13;;;19.14;100.00
35331;BME280;21441;52.190;20.910;2023-07-22T07:06:42;99570.41;;;19.16;100.00
35331;BME280;21441;52.190;20.910;2023-07-22T07:09:10;99578.16;;;19.58;100.00
35331;BME280;21441;52.190;20.910;2023-07-22T07:11:37;99592.00;;;18.99;100.00
35331;BME280;21441;52.190;20.910;2023-07-22T07:14:04;99590.00;;;18.78;100.00
35331;BME280;21441;52.190;20.910;2023-07-22T07:16:31;99595.72;;;19.10;100.00
35331;BME280;21441;52.190;20.910;2023-07-22T07:18:59;99597.00;;;19.53;100.00
35331;BME280;21441;52.190;20.910;2023-07-22T07:21:27;99613.63;;;19.28;100.00
35331;BME280;21441;52.190;20.910;2023-07-22T07:23:54;99598.97;;;18.95;100.00
35331;BME280;21441;52.190;20.910;2023-07-22T07:26:23;99607.69;;;18.85;100.00
35331;BME280;21441;52.190;20.910;2023-07-22T07:28:50;99618.53;;;18.73;100.00
35331;BME280;21441;52.190;20.910;2023-07-22T07:31:17;99609.16;;;18.64;100.00
35331;BME280;21441;52.190;20.910;2023-07-22T07:33:44;99602.63;;;18.89;100.00
35331;BME280;21441;52.190;20.910;2023-07-22T07:36:12;99606.88;;;18.85;100.00
35331;BME280;21441;52.190;20.910;2023-07-22T07:38:38;99594.53;;;18.89;100.00
35331;BME280;21441;52.190;20.910;2023-07-22T07:41:06;99604.84;;;19.21;100.00
35331;BME280;21441;52.190;20.910;2023-07-22T07:43:35;99616.97;;;19.81;95.06
35331;BME280;21441;52.190;20.910;2023-07-22T07:46:14;99619.13;;;20.17;89.36
35331;BME280;21441;52.190;20.910;2023-07-22T07:48:43;99622.28;;;20.09;84.82
35331;BME280;21441;52.190;20.910;2023-07-22T07:51:12;99623.19;;;20.37;83.35
35331;BME280;21441;52.190;20.910;2023-07-22T07:53:39;99619.63;;;20.75;81.40
35331;BME280;21441;52.190;20.910;2023-07-22T07:56:07;99626.91;;;20.53;81.60
35331;BME280;21441;52.190;20.910;2023-07-22T07:58:33;99627.78;;;19.81;84.63
35331;BME280;21441;52.190;20.910;2023-07-22T08:01:02;99630.59;;;19.40;88.35
35331;BME280;21441;52.190;20.910;2023-07-22T08:03:29;99631.19;;;19.59;89.34
35331;BME280;21441;52.190;20.910;2023-07-22T08:05:56;99637.94;;;19.56;87.16
35331;BME280;21441;52.190;20.910;2023-07-22T08:08:23;99645.16;;;20.02;81.02
35331;BME280;21441;52.190;20.910;2023-07-22T08:10:58;99644.66;;;20.44;74.54
35331;BME280;21441;52.190;20.910;2023-07-22T08:13:25;99647.41;;;20.66;73.89
35331;BME280;21441;52.190;20.910;2023-07-22T08:15:53;99655.94;;;20.74;71.33
35331;BME280;21441;52.190;20.910;2023-07-22T08:18:21;99663.91;;;20.25;71.76
35331;BME280;21441;52.190;20.910;2023-07-22T08:20:48;99651.88;;;20.16;68.71
35331;BME280;21441;52.190;20.910;2023-07-22T08:23:15;99657.72;;;20.47;69.40
35331;BME280;21441;52.190;20.910;2023-07-22T08:25:42;99662.00;;;20.81;68.42
35331;BME280;21441;52.190;20.910;2023-07-22T08:28:08;99662.81;;;20.60;68.08
35331;BME280;21441;52.190;20.910;2023-07-22T08:30:35;99665.34;;;20.67;64.55
35331;BME280;21441;52.190;20.910;2023-07-22T08:33:02;99666.28;;;20.22;66.76
35331;BME280;21441;52.190;20.910;2023-07-22T08:35:30;99670.94;;;20.60;67.00
35331;BME280;21441;52.190;20.910;2023-07-22T08:37:57;99672.75;;;20.98;64.55
35331;BME280;21441;52.190;20.910;2023-07-22T08:40:24;99679.56;;;21.01;65.49
35331;BME280;21441;52.190;20.910;2023-07-22T08:42:52;99671.75;;;21.05;65.95
35331;BME280;21441;52.190;20.910;2023-07-22T08:45:20;99680.50;;;21.61;65.24
35331;BME280;21441;52.190;20.910;2023-07-22T08:47:50;99675.38;;;20.88;65.76
35331;BME280;21441;52.190;20.910;2023-07-22T08:50:20;99687.78;;;21.33;63.86
35331;BME280;21441;52.190;20.910;2023-07-22T08:52:50;99685.03;;;21.28;63.25
35331;BME280;21441;52.190;20.910;2023-07-22T08:55:18;99675.97;;;21.17;62.34
35331;BME280;21441;52.190;20.910;2023-07-22T08:57:46;99684.16;;;21.00;64.55
35331;BME280;21441;52.190;20.910;2023-07-22T09:00:13;99689.34;;;21.29;62.71
35331;BME280;21441;52.190;20.910;2023-07-22T09:02:41;99686.78;;;21.67;61.69
35331;BME280;21441;52.190;20.910;2023-07-22T09:05:08;99681.44;;;21.77;61.04
35331;BME280;21441;52.190;20.910;2023-07-22T09:07:35;99691.53;;;22.19;57.77
35331;BME280;21441;52.190;20.910;2023-07-22T09:10:06;99692.34;;;22.19;55.40
35331;BME280;21441;52.190;20.910;2023-07-22T09:12:35;99687.75;;;22.20;56.64
35331;BME280;21441;52.190;20.910;2023-07-22T09:15:08;99698.28;;;22.11;58.36
35331;BME280;21441;52.190;20.910;2023-07-22T09:17:35;99693.91;;;22.42;57.77
35331;BME280;21441;52.190;20.910;2023-07-22T09:20:03;99693.34;;;22.93;56.59
35331;BME280;21441;52.190;20.910;2023-07-22T09:22:31;99684.53;;;23.39;56.04
35331;BME280;21441;52.190;20.910;2023-07-22T09:25:14;99684.00;;;23.57;53.50
35331;BME280;21441;52.190;20.910;2023-07-22T09:27:41;99695.97;;;23.41;53.79
35331;BME280;21441;52.190;20.910;2023-07-22T09:30:22;99685.84;;;23.21;53.43
35331;BME280;21441;52.190;20.910;2023-07-22T09:32:50;99700.03;;;22.70;53.40
35331;BME280;21441;52.190;20.910;2023-07-22T09:35:17;99694.91;;;22.79;53.74
35331;BME280;21441;52.190;20.910;2023-07-22T09:37:45;99692.91;;;23.22;53.34
35331;BME280;21441;52.190;20.910;2023-07-22T09:40:17;99690.97;;;23.07;52.90
35331;BME280;21441;52.190;20.910;2023-07-22T09:42:46;99680.16;;;23.38;52.47
35331;BME280;21441;52.190;20.910;2023-07-22T09:45:13;99683.91;;;22.53;50.95
35331;BME280;21441;52.190;20.910;2023-07-22T09:47:41;99705.84;;;22.41;52.69
35331;BME280;21441;52.190;20.910;2023-07-22T09:50:11;99706.94;;;22.93;50.87
35331;BME280;21441;52.190;20.910;2023-07-22T09:52:42;99699.25;;;23.53;49.72
35331;BME280;21441;52.190;20.910;2023-07-22T09:55:09;99693.03;;;23.94;48.93
35331;BME280;21441;52.190;20.910;2023-07-22T09:57:42;99693.75;;;24.71;46.94
35331;BME280;21441;52.190;20.910;2023-07-22T10:00:11;99702.53;;;24.37;47.29
35331;BME280;21441;52.190;20.910;2023-07-22T10:02:40;99698.97;;;23.60;48.52
35331;BME280;21441;52.190;20.910;2023-07-22T10:05:11;99715.91;;;22.41;50.57
35331;BME280;21441;52.190;20.910;2023-07-22T10:07:41;99710.25;;;23.00;50.22
35331;BME280;21441;52.190;20.910;2023-07-22T10:10:10;99717.75;;;23.51;49.89
35331;BME280;21441;52.190;20.910;2023-07-22T10:12:39;99713.06;;;23.26;49.82
35331;BME280;21441;52.190;20.910;2023-07-22T10:15:07;99722.03;;;23.21;48.96
35331;BME280;21441;52.190;20.910;2023-07-22T10:17:35;99720.47;;;23.41;47.85
35331;BME280;21441;52.190;20.910;2023-07-22T10:20:03;99707.44;;;23.58;47.39
35331;BME280;21441;52.190;20.910;2023-07-22T10:22:34;99700.94;;;23.85;46.45
35331;BME280;21441;52.190;20.910;2023-07-22T10:25:04;99700.28;;;23.21;46.09
35331;BME280;21441;52.190;20.910;2023-07-22T10:27:32;99705.19;;;22.66;46.89
35331;BME280;21441;52.190;20.910;2023-07-22T10:30:17;99707.59;;;22.63;47.12
35331;BME280;21441;52.190;20.910;2023-07-22T10:32:46;99692.97;;;23.32;46.97
35331;BME280;21441;52.190;20.910;2023-07-22T10:35:18;99703.84;;;23.32;46.09
35331;BME280;21441;52.190;20.910;2023-07-22T10:37:48;99705.13;;;22.61;46.79
35331;BME280;21441;52.190;20.910;2023-07-22T10:40:17;99711.28;;;22.94;47.16
35331;BME280;21441;52.190;20.910;2023-07-22T10:42:53;99716.91;;;23.30;46.47
35331;BME280;21441;52.190;20.910;2023-07-22T10:45:26;99712.50;;;23.24;46.80
35331;BME280;21441;52.190;20.910;2023-07-22T10:48:01;99717.66;;;23.15;46.56
35331;BME280;21441;52.190;20.910;2023-07-22T10:50:38;99714.28;;;23.81;45.02
35331;BME280;21441;52.190;20.910;2023-07-22T10:53:09;99708.47;;;23.42;46.26
35331;BME280;21441;52.190;20.910;2023-07-22T10:56:04;99722.84;;;23.22;45.84
35331;BME280;21441;52.190;20.910;2023-07-22T10:59:05;99710.69;;;23.60;45.43
35331;BME280;21441;52.190;20.910;2023-07-22T11:01:35;99721.47;;;23.14;46.73
35331;BME280;21441;52.190;20.910;2023-07-22T11:04:10;99700.69;;;23.92;45.38
35331;BME280;21441;52.190;20.910;2023-07-22T11:06:51;99706.75;;;24.89;43.67
35331;BME280;21441;52.190;20.910;2023-07-22T11:09:34;99701.19;;;25.15;42.25
35331;BME280;21441;52.190;20.910;2023-07-22T11:12:03;99698.53;;;25.00;42.53
35331;BME280;21441;52.190;20.910;2023-07-22T11:14:32;99696.50;;;24.45;44.40
35331;BME280;21441;52.190;20.910;2023-07-22T11:17:02;99697.03;;;24.73;43.59
35331;BME280;21441;52.190;20.910;2023-07-22T11:19:29;99705.75;;;24.70;43.00
35331;BME280;21441;52.190;20.910;2023-07-22T11:21:57;99710.13;;;24.61;43.52
35331;BME280;21441;52.190;20.910;2023-07-22T11:24:24;99705.84;;;25.64;42.74
35331;BME280;21441;52.190;20.910;2023-07-22T11:26:52;99706.16;;;25.03;42.96
35331;BME280;21441;52.190;20.910;2023-07-22T11:29:20;99718.28;;;25.81;42.27
35331;BME280;21441;52.190;20.910;2023-07-22T11:31:49;99704.59;;;25.86;41.19
35331;BME280;21441;52.190;20.910;2023-07-22T11:34:19;99697.31;;;25.31;41.46
35331;BME280;21441;52.190;20.910;2023-07-22T11:36:48;99708.53;;;24.24;42.73
35331;BME280;21441;52.190;20.910;2023-07-22T11:39:16;99714.00;;;24.03;43.59
35331;BME280;21441;52.190;20.910;2023-07-22T11:41:44;99709.38;;;24.04;43.90
35331;BME280;21441;52.190;20.910;2023-07-22T11:44:13;99710.44;;;24.39;43.15
35331;BME280;21441;52.190;20.910;2023-07-22T11:46:49;99703.91;;;24.55;42.93
35331;BME280;21441;52.190;20.910;2023-07-22T11:49:29;99713.06;;;24.85;43.20
35331;BME280;21441;52.190;20.910;2023-07-22T11:51:58;99698.09;;;23.28;44.79
35331;BME280;21441;52.190;20.910;2023-07-22T11:54:25;99715.25;;;23.24;46.34
35331;BME280;21441;52.190;20.910;2023-07-22T11:56:56;99714.78;;;23.73;45.32
35331;BME280;21441;52.190;20.910;2023-07-22T11:59:38;99704.00;;;25.00;43.75
35331;BME280;21441;52.190;20.910;2023-07-22T12:02:13;99700.47;;;24.94;43.19
35331;BME280;21441;52.190;20.910;2023-07-22T12:04:43;99697.16;;;25.57;42.52
35331;BME280;21441;52.190;20.910;2023-07-22T12:07:24;99680.91;;;25.37;41.04
35331;BME280;21441;52.190;20.910;2023-07-22T12:09:52;99702.19;;;24.69;41.99
35331;BME280;21441;52.190;20.910;2023-07-22T12:12:19;99697.06;;;24.58;41.53
35331;BME280;21441;52.190;20.910;2023-07-22T12:14:46;99684.94;;;24.95;41.20
35331;BME280;21441;52.190;20.910;2023-07-22T12:17:13;99693.75;;;24.71;41.38
35331;BME280;21441;52.190;20.910;2023-07-22T12:19:51;99691.34;;;25.29;40.43
35331;BME280;21441;52.190;20.910;2023-07-22T12:22:19;99692.72;;;24.52;41.10
35331;BME280;21441;52.190;20.910;2023-07-22T12:24:47;99682.13;;;23.63;42.51
35331;BME280;21441;52.190;20.910;2023-07-22T12:27:14;99684.50;;;23.34;43.43
35331;BME280;21441;52.190;20.910;2023-07-22T12:29:40;99695.69;;;23.37;43.75
35331;BME280;21441;52.190;20.910;2023-07-22T12:32:08;99694.38;;;23.60;43.12
35331;BME280;21441;52.190;20.910;2023-07-22T12:34:35;99692.47;;;24.02;42.06
35331;BME280;21441;52.190;20.910;2023-07-22T12:37:04;99694.41;;;24.06;41.83
35331;BME280;21441;52.190;20.910;2023-07-22T12:39:31;99694.13;;;23.98;41.55
35331;BME280;21441;52.190;20.910;2023-07-22T12:41:58;99684.31;;;24.02;41.00
35331;BME280;21441;52.190;20.910;2023-07-22T12:44:24;99698.50;;;23.99;40.88
35331;BME280;21441;52.190;20.910;2023-07-22T12:46:52;99685.94;;;24.28;40.51
35331;BME280;21441;52.190;20.910;2023-07-22T12:49:19;99689.50;;;23.98;40.82